createdAt,value
2018-07-05T00:00:38.476Z,7.50
2018-07-05T00:03:18.695Z,7.23
2018-07-05T00:05:58.991Z,7.93
2018-07-05T00:08:39.608Z,10.50
2018-07-05T00:11:19.944Z,11.07
2018-07-05T00:14:00.446Z,7.30
2018-07-05T00:16:40.729Z,7.47
2018-07-05T00:19:21.108Z,8.30
2018-07-05T00:22:01.629Z,8.43
2018-07-05T00:24:42.018Z,9.07
2018-07-05T00:27:22.347Z,8.27
2018-07-05T00:30:02.829Z,8.33
2018-07-05T00:32:43.273Z,10.03
2018-07-05T00:35:23.784Z,7.63
2018-07-05T00:38:04.595Z,8.53
2018-07-05T00:40:44.920Z,8.40
2018-07-05T00:43:25.959Z,10.27
2018-07-05T00:46:06.347Z,9.97
2018-07-05T00:48:46.603Z,8.67
2018-07-05T00:51:26.915Z,9.03
2018-07-05T00:54:07.895Z,9.13
2018-07-05T00:56:48.379Z,9.07
2018-07-05T00:59:28.752Z,9.60
2018-07-05T01:02:09.128Z,9.33
2018-07-05T01:04:49.471Z,8.70
2018-07-05T01:07:29.719Z,10.47
2018-07-05T01:10:10.292Z,10.43
2018-07-05T01:12:50.552Z,9.70
2018-07-05T01:15:31.008Z,10.30
2018-07-05T01:18:11.510Z,9.93
2018-07-05T01:20:51.943Z,10.83
2018-07-05T01:23:32.328Z,13.10
2018-07-05T01:26:12.666Z,8.77
2018-07-05T01:28:53.015Z,10.37
2018-07-05T01:31:33.377Z,14.30
2018-07-05T01:34:13.805Z,11.43
2018-07-05T01:36:48.099Z,14.37
2018-07-05T01:39:28.618Z,12.20
2018-07-05T01:42:09.103Z,13.17
2018-07-05T01:44:49.398Z,12.07
2018-07-05T01:47:29.636Z,9.70
2018-07-05T01:50:09.971Z,10.13
2018-07-05T01:52:50.544Z,11.67
2018-07-05T01:55:31.351Z,10.03
2018-07-05T01:58:12.128Z,11.70
2018-07-05T02:00:52.633Z,11.50
2018-07-05T02:03:33.172Z,13.07
2018-07-05T02:06:14.204Z,12.53
2018-07-05T02:08:54.411Z,14.03
2018-07-05T02:11:34.857Z,10.90
2018-07-05T02:14:15.223Z,12.27
2018-07-05T02:16:55.547Z,13.57
2018-07-05T02:19:35.873Z,10.67
2018-07-05T02:22:16.173Z,10.83
2018-07-05T02:24:56.584Z,11.27
2018-07-05T02:27:37.629Z,10.93
2018-07-05T02:30:17.930Z,13.03
2018-07-05T02:32:58.584Z,12.27
2018-07-05T02:35:39.305Z,14.03
2018-07-05T02:38:22.657Z,12.63
2018-07-05T02:41:04.033Z,14.03
2018-07-05T02:43:44.696Z,13.33
2018-07-05T02:46:25.201Z,10.13
2018-07-05T02:49:05.507Z,12.27
2018-07-05T02:51:45.768Z,13.23
2018-07-05T02:54:26.141Z,11.07
2018-07-05T02:57:06.436Z,10.50
2018-07-05T02:59:46.728Z,12.87
2018-07-05T03:02:27.131Z,12.93
2018-07-05T03:05:07.407Z,11.13
2018-07-05T03:07:47.711Z,11.33
2018-07-05T03:10:28.011Z,10.33
2018-07-05T03:13:08.391Z,9.63
2018-07-05T03:15:48.851Z,11.63
2018-07-05T03:18:29.235Z,10.53
2018-07-05T03:21:09.555Z,10.10
2018-07-05T03:23:49.748Z,11.20
2018-07-05T03:26:30.237Z,10.00
2018-07-05T03:29:10.588Z,11.97
2018-07-05T03:31:50.971Z,12.90
2018-07-05T03:34:25.459Z,8.17
2018-07-05T03:37:05.804Z,9.87
2018-07-05T03:39:46.155Z,8.90
2018-07-05T03:42:26.533Z,11.07
2018-07-05T03:45:06.985Z,8.63
2018-07-05T03:47:47.484Z,9.10
2018-07-05T03:50:27.941Z,9.83
2018-07-05T03:53:08.283Z,11.97
2018-07-05T03:55:48.882Z,10.67
2018-07-05T03:58:29.663Z,10.53
2018-07-05T04:01:10.184Z,7.40
2018-07-05T04:03:50.450Z,8.70
2018-07-05T04:06:30.783Z,8.93
2018-07-05T04:09:11.296Z,7.87
2018-07-05T04:11:51.636Z,9.13
2018-07-05T04:14:32.106Z,10.23
2018-07-05T04:17:12.319Z,9.40
2018-07-05T04:19:52.680Z,9.37
2018-07-05T04:22:33.019Z,7.20
2018-07-05T04:25:13.324Z,9.10
2018-07-05T04:27:53.858Z,7.57
2018-07-05T04:30:34.369Z,8.70
2018-07-05T04:33:14.803Z,8.07
2018-07-05T04:35:55.179Z,6.37
2018-07-05T04:38:35.536Z,7.07
2018-07-05T04:41:15.893Z,6.50
2018-07-05T04:43:56.304Z,6.17
2018-07-05T04:46:30.717Z,9.07
2018-07-05T04:49:11.055Z,6.83
2018-07-05T04:51:51.501Z,4.73
2018-07-05T04:54:31.914Z,5.47
2018-07-05T04:57:12.399Z,5.87
2018-07-05T04:59:52.943Z,5.43
2018-07-05T05:02:27.367Z,6.23
2018-07-05T05:05:07.837Z,3.47
2018-07-05T05:07:47.425Z,2.70
2018-07-05T05:10:28.076Z,3.50
2018-07-05T05:13:08.603Z,2.73
2018-07-05T05:15:49.107Z,2.10
2018-07-05T05:18:30.174Z,2.03
2018-07-05T05:21:10.701Z,2.67
2018-07-05T05:23:51.210Z,2.17
2018-07-05T05:26:31.850Z,2.07
2018-07-05T05:29:12.289Z,1.97
2018-07-05T05:31:52.706Z,3.40
2018-07-05T05:34:33.320Z,2.00
2018-07-05T05:37:07.924Z,2.90
2018-07-05T05:39:48.517Z,2.60
2018-07-05T05:42:28.990Z,2.57
2018-07-05T05:45:09.426Z,2.43
2018-07-05T05:47:49.875Z,3.30
2018-07-05T05:50:30.494Z,3.03
2018-07-05T05:53:11.028Z,2.40
2018-07-05T05:55:51.366Z,2.43
2018-07-05T05:58:31.823Z,3.13
2018-07-05T06:01:12.239Z,5.10
2018-07-05T06:03:53.347Z,3.90
2018-07-05T06:06:33.911Z,4.10
2018-07-05T06:09:14.360Z,2.97
2018-07-05T06:11:54.750Z,2.90
2018-07-05T06:14:35.167Z,3.40
2018-07-05T06:17:15.651Z,3.73
2018-07-05T06:19:56.108Z,4.10
2018-07-05T06:22:36.679Z,4.20
2018-07-05T06:25:17.068Z,4.33
2018-07-05T06:27:51.353Z,4.47
2018-07-05T06:30:31.740Z,5.07
2018-07-05T06:33:12.131Z,4.70
2018-07-05T06:35:52.546Z,4.40
2018-07-05T06:38:32.889Z,4.83
2018-07-05T06:41:13.289Z,5.10
2018-07-05T06:43:53.669Z,6.23
2018-07-05T06:46:28.060Z,4.10
2018-07-05T06:49:08.522Z,4.30
2018-07-05T06:51:48.900Z,3.87
2018-07-05T06:54:29.333Z,4.03
2018-07-05T06:57:09.633Z,2.47
2018-07-05T06:59:50.120Z,2.27
2018-07-05T07:02:31.167Z,2.43
2018-07-05T07:05:11.581Z,3.20
2018-07-05T07:07:52.044Z,2.63
2018-07-05T07:10:32.433Z,2.13
2018-07-05T07:13:12.803Z,3.37
2018-07-05T07:15:53.406Z,3.27
2018-07-05T07:18:33.824Z,3.80
2018-07-05T07:21:14.541Z,3.40
2018-07-05T07:23:54.964Z,2.47
2018-07-05T07:26:35.381Z,1.80
2018-07-05T07:29:15.729Z,2.27
2018-07-05T07:31:56.319Z,2.30
2018-07-05T07:34:36.775Z,2.60
2018-07-05T07:37:17.236Z,2.00
2018-07-05T07:39:57.790Z,1.97
2018-07-05T07:42:25.741Z,2.47
2018-07-05T07:44:53.691Z,3.03
2018-07-05T07:47:21.663Z,2.23
2018-07-05T07:49:49.712Z,2.20
2018-07-05T07:52:17.688Z,2.47
2018-07-05T07:54:45.649Z,2.97
2018-07-05T07:57:13.719Z,2.00
2018-07-05T07:59:41.678Z,2.13
2018-07-05T08:02:10.408Z,2.70
2018-07-05T08:04:38.607Z,2.30
2018-07-05T08:07:06.597Z,2.47
2018-07-05T08:09:34.528Z,2.70
2018-07-05T08:12:02.510Z,4.27
2018-07-05T08:14:30.580Z,3.90
2018-07-05T08:16:58.619Z,2.73
2018-07-05T08:19:26.582Z,3.10
2018-07-05T08:21:54.628Z,3.03
2018-07-05T08:24:23.123Z,2.73
2018-07-05T08:26:51.063Z,2.60
2018-07-05T08:29:19.061Z,2.87
2018-07-05T08:31:47.011Z,3.23
2018-07-05T08:34:14.977Z,2.43
2018-07-05T08:36:42.956Z,2.13
2018-07-05T08:39:10.919Z,2.27
2018-07-05T08:41:38.922Z,1.80
2018-07-05T08:44:07.068Z,2.17
2018-07-05T08:46:35.036Z,2.20
2018-07-05T08:49:03.089Z,2.27
2018-07-05T08:51:31.040Z,2.47
2018-07-05T08:53:59.042Z,2.67
2018-07-05T08:56:27.014Z,4.20
2018-07-05T08:58:54.972Z,2.30
2018-07-05T09:01:23.126Z,2.70
2018-07-05T09:03:51.063Z,2.97
2018-07-05T09:06:19.018Z,2.60
2018-07-05T09:08:46.990Z,2.87
2018-07-05T09:11:15.115Z,3.03
2018-07-05T09:13:43.081Z,3.83
2018-07-05T09:16:11.042Z,3.50
2018-07-05T09:18:39.105Z,4.27
2018-07-05T09:21:07.748Z,3.17
2018-07-05T09:23:35.836Z,3.77
2018-07-05T09:26:03.956Z,3.53
2018-07-05T09:28:31.913Z,3.03
2018-07-05T09:30:59.858Z,2.47
2018-07-05T09:33:27.904Z,2.67
2018-07-05T09:35:55.862Z,3.30
2018-07-05T09:38:23.802Z,1.97
2018-07-05T09:40:51.752Z,2.20
2018-07-05T09:43:19.761Z,1.67
2018-07-05T09:45:47.728Z,3.90
2018-07-05T09:48:15.695Z,3.00
2018-07-05T09:50:43.683Z,18.20
2018-07-05T09:53:11.669Z,2.30
2018-07-05T09:55:39.729Z,3.67
2018-07-05T09:58:07.822Z,2.50
2018-07-05T10:00:41.207Z,2.17
2018-07-05T10:03:09.168Z,2.70
2018-07-05T10:05:37.126Z,3.07
2018-07-05T10:08:05.111Z,2.10
2018-07-05T10:10:33.087Z,2.40
2018-07-05T10:13:01.325Z,2.90
2018-07-05T10:15:29.776Z,3.40
2018-07-05T10:17:57.681Z,2.37
2018-07-05T10:20:25.733Z,3.27
2018-07-05T10:22:53.898Z,2.73
2018-07-05T10:25:21.912Z,2.20
2018-07-05T10:27:49.865Z,2.53
2018-07-05T10:30:30.310Z,2.50
2018-07-05T10:33:10.551Z,2.20
2018-07-05T10:35:38.499Z,2.43
2018-07-05T10:38:06.996Z,1.70
2018-07-05T10:40:47.450Z,2.43
2018-07-05T10:43:27.862Z,1.70
2018-07-05T10:46:08.678Z,2.37
2018-07-05T10:48:49.043Z,2.37
2018-07-05T10:51:29.515Z,3.10
2018-07-05T10:54:10.115Z,2.77
2018-07-05T10:56:50.389Z,1.60
2018-07-05T10:59:30.844Z,2.03
2018-07-05T11:02:11.228Z,1.57
2018-07-05T11:04:51.549Z,2.00
2018-07-05T11:07:31.914Z,2.90
2018-07-05T11:10:12.404Z,1.30
2018-07-05T11:12:52.728Z,0.97
2018-07-05T11:15:33.385Z,3.87
2018-07-05T11:18:13.819Z,1.40
2018-07-05T11:20:54.168Z,1.30
2018-07-05T11:23:34.635Z,1.30
2018-07-05T11:26:14.990Z,0.83
2018-07-05T11:28:55.439Z,1.13
2018-07-05T11:31:35.852Z,1.10
2018-07-05T11:34:16.199Z,0.90
2018-07-05T11:36:56.740Z,1.87
2018-07-05T11:39:37.243Z,0.77
2018-07-05T11:42:17.690Z,1.30
2018-07-05T11:44:58.118Z,1.20
2018-07-05T11:47:38.389Z,0.93
2018-07-05T11:50:19.247Z,1.20
2018-07-05T11:52:59.692Z,1.13
2018-07-05T11:55:40.431Z,1.30
2018-07-05T11:58:20.757Z,0.83
2018-07-05T12:01:01.253Z,2.97
2018-07-05T12:03:41.579Z,1.37
2018-07-05T12:06:22.552Z,1.60
2018-07-05T12:09:03.121Z,1.17
2018-07-05T12:11:43.546Z,0.60
2018-07-05T12:14:23.909Z,0.90
2018-07-05T12:17:04.681Z,0.80
2018-07-05T12:19:45.321Z,1.03
2018-07-05T12:22:25.700Z,1.03
2018-07-05T12:25:06.319Z,1.70
2018-07-05T12:27:46.840Z,0.93
2018-07-05T12:30:27.312Z,1.27
2018-07-05T12:33:07.689Z,2.70
2018-07-05T12:35:48.143Z,1.57
2018-07-05T12:38:28.675Z,1.53
2018-07-05T12:41:09.688Z,1.07
2018-07-05T12:43:49.991Z,1.33
2018-07-05T12:46:30.528Z,2.10
2018-07-05T12:49:11.112Z,0.93
2018-07-05T12:51:51.536Z,0.80
2018-07-05T12:54:32.131Z,2.30
2018-07-05T12:57:12.659Z,1.23
2018-07-05T12:59:53.144Z,1.07
2018-07-05T13:02:33.436Z,1.13
2018-07-05T13:05:13.871Z,1.40
2018-07-05T13:07:54.156Z,3.00
2018-07-05T13:10:34.559Z,1.03
2018-07-05T13:13:14.959Z,1.10
2018-07-05T13:15:55.464Z,2.90
2018-07-05T13:18:35.795Z,2.40
2018-07-05T13:21:10.188Z,1.40
2018-07-05T13:23:50.682Z,1.30
2018-07-05T13:26:31.235Z,3.73
2018-07-05T13:29:11.840Z,4.77
2018-07-05T13:31:52.514Z,2.20
2018-07-05T13:34:33.186Z,1.77
2018-07-05T13:37:13.680Z,1.50
2018-07-05T13:39:54.489Z,3.33
2018-07-05T13:42:34.928Z,1.20
2018-07-05T13:45:15.454Z,2.10
2018-07-05T13:47:55.825Z,1.90
2018-07-05T13:50:36.209Z,1.77
2018-07-05T13:53:16.762Z,1.10
2018-07-05T13:55:57.165Z,1.70
2018-07-05T13:58:37.601Z,1.43
2018-07-05T14:01:17.987Z,1.13
2018-07-05T14:03:52.307Z,2.40
2018-07-05T14:06:32.800Z,1.10
2018-07-05T14:09:13.409Z,1.40
2018-07-05T14:11:53.889Z,0.73
2018-07-05T14:14:34.229Z,1.20
2018-07-05T14:17:14.703Z,1.70
2018-07-05T14:19:55.007Z,1.23
2018-07-05T14:22:35.399Z,1.53
2018-07-05T14:25:15.832Z,1.60
2018-07-05T14:27:56.087Z,2.00
2018-07-05T14:30:36.460Z,1.50
2018-07-05T14:33:17.099Z,1.70
2018-07-05T14:35:57.483Z,2.87
2018-07-05T14:38:38.073Z,2.87
2018-07-05T14:41:18.471Z,2.47
2018-07-05T14:43:58.971Z,1.67
2018-07-05T14:46:39.360Z,2.40
2018-07-05T14:49:19.836Z,2.27
2018-07-05T14:52:00.428Z,2.20
2018-07-05T14:54:40.857Z,2.67
2018-07-05T14:57:21.463Z,1.93
2018-07-05T15:00:01.846Z,2.23
2018-07-05T15:02:42.260Z,1.80
2018-07-05T15:05:22.738Z,2.67
2018-07-05T15:08:03.212Z,3.20
2018-07-05T15:10:43.490Z,1.50
2018-07-05T15:13:24.018Z,1.70
2018-07-05T15:16:04.328Z,1.87
2018-07-05T15:18:44.932Z,1.60
2018-07-05T15:21:25.894Z,1.67
2018-07-05T15:24:06.209Z,1.70
2018-07-05T15:26:40.524Z,1.63
2018-07-05T15:29:20.913Z,3.33
2018-07-05T15:32:01.276Z,2.67
2018-07-05T15:34:41.741Z,2.53
2018-07-05T15:37:22.172Z,1.77
2018-07-05T15:40:02.529Z,2.17
2018-07-05T15:42:43.165Z,1.73
2018-07-05T15:45:23.515Z,1.43
2018-07-05T15:48:03.903Z,1.30
2018-07-05T15:50:44.300Z,1.50
2018-07-05T15:53:24.670Z,1.63
2018-07-05T15:56:04.997Z,1.60
2018-07-05T15:58:39.361Z,1.30
2018-07-05T16:01:19.740Z,1.43
2018-07-05T16:04:00.100Z,1.60
2018-07-05T16:06:40.669Z,1.87
2018-07-05T16:09:21.161Z,2.00
2018-07-05T16:12:01.479Z,1.70
2018-07-05T16:14:41.915Z,2.47
2018-07-05T16:17:22.366Z,2.20
2018-07-05T16:20:02.964Z,1.70
2018-07-05T16:22:43.475Z,1.90
2018-07-05T16:25:23.928Z,3.83
2018-07-05T16:28:04.613Z,2.67
2018-07-05T16:30:45.073Z,1.70
2018-07-05T16:33:26.135Z,1.40
2018-07-05T16:36:06.456Z,1.30
2018-07-05T16:38:46.816Z,1.00
2018-07-05T16:41:27.249Z,1.13
2018-07-05T16:44:07.660Z,3.87
2018-07-05T16:46:48.229Z,2.20
2018-07-05T16:49:28.612Z,0.97
2018-07-05T16:52:09.029Z,3.07
2018-07-05T16:54:49.452Z,1.83
2018-07-05T16:57:29.746Z,1.20
2018-07-05T17:00:10.277Z,5.43
2018-07-05T17:02:50.923Z,2.97
2018-07-05T17:05:31.248Z,1.67
2018-07-05T17:08:11.745Z,1.73
2018-07-05T17:10:52.093Z,0.93
2018-07-05T17:13:32.637Z,0.80
2018-07-05T17:16:13.220Z,1.00
2018-07-05T17:18:53.642Z,1.30
2018-07-05T17:21:34.175Z,1.40
2018-07-05T17:24:14.634Z,1.40
2018-07-05T17:26:54.840Z,1.63
2018-07-05T17:29:35.023Z,1.63
2018-07-05T17:32:15.588Z,2.03
2018-07-05T17:34:56.013Z,1.50
2018-07-05T17:37:36.435Z,2.20
2018-07-05T17:40:10.784Z,1.80
2018-07-05T17:42:51.191Z,2.53
2018-07-05T17:45:31.909Z,2.30
2018-07-05T17:48:12.556Z,2.17
2018-07-05T17:50:47.058Z,2.17
2018-07-05T17:53:27.512Z,2.47
2018-07-05T17:56:08.394Z,2.40
2018-07-05T17:58:48.912Z,2.73
2018-07-05T18:01:29.276Z,2.23
2018-07-05T18:04:09.690Z,2.47
2018-07-05T18:06:45.063Z,2.30
2018-07-05T18:09:25.493Z,1.83
2018-07-05T18:12:06.007Z,2.80
2018-07-05T18:14:46.857Z,4.43
2018-07-05T18:17:28.371Z,2.90
2018-07-05T18:20:08.728Z,2.73
2018-07-05T18:22:49.216Z,5.20
2018-07-05T18:25:29.685Z,2.90
2018-07-05T18:28:10.048Z,2.10
2018-07-05T18:30:50.492Z,2.47
2018-07-05T18:33:31.032Z,1.80
2018-07-05T18:36:11.596Z,2.83
2018-07-05T18:38:51.915Z,3.07
2018-07-05T18:41:32.406Z,2.73
2018-07-05T18:44:12.793Z,3.67
2018-07-05T18:46:53.165Z,2.40
2018-07-05T18:49:33.510Z,2.53
2018-07-05T18:52:14.085Z,3.00
2018-07-05T18:54:54.768Z,3.97
2018-07-05T18:57:35.152Z,2.10
2018-07-05T19:00:15.828Z,3.80
2018-07-05T19:02:57.061Z,3.00
2018-07-05T19:05:37.480Z,3.20
2018-07-05T19:08:18.005Z,2.37
2018-07-05T19:10:58.559Z,2.50
2018-07-05T19:13:38.972Z,3.40
2018-07-05T19:16:19.272Z,2.73
2018-07-05T19:18:59.481Z,1.60
2018-07-05T19:21:39.676Z,2.23
2018-07-05T19:24:20.021Z,2.00
2018-07-05T19:27:00.481Z,2.50
2018-07-05T19:29:40.817Z,2.63
2018-07-05T19:32:21.378Z,2.37
2018-07-05T19:34:55.910Z,2.10
2018-07-05T19:37:36.347Z,2.30
2018-07-05T19:40:16.653Z,3.20
2018-07-05T19:42:57.036Z,3.30
2018-07-05T19:45:37.399Z,2.60
2018-07-05T19:48:17.650Z,3.03
2018-07-05T19:50:58.040Z,3.93
2018-07-05T19:53:38.602Z,2.67
2018-07-05T19:56:18.988Z,2.40
2018-07-05T19:58:59.528Z,4.73
2018-07-05T20:01:39.934Z,2.30
2018-07-05T20:04:20.352Z,2.37
2018-07-05T20:07:02.602Z,2.83
2018-07-05T20:09:43.047Z,3.87
2018-07-05T20:12:23.548Z,3.33
2018-07-05T20:15:03.983Z,3.43
2018-07-05T20:17:44.217Z,3.73
2018-07-05T20:20:24.629Z,4.60
2018-07-05T20:23:05.081Z,3.20
2018-07-05T20:25:45.664Z,2.60
2018-07-05T20:28:26.128Z,3.07
2018-07-05T20:31:06.813Z,2.80
2018-07-05T20:33:47.240Z,2.80
2018-07-05T20:36:27.808Z,3.20
2018-07-05T20:39:08.776Z,4.57
2018-07-05T20:41:49.044Z,2.87
2018-07-05T20:44:29.561Z,3.10
2018-07-05T20:47:10.108Z,4.00
2018-07-05T20:49:50.650Z,4.13
2018-07-05T20:52:31.057Z,3.83
2018-07-05T20:55:11.464Z,4.37
2018-07-05T20:57:51.864Z,4.03
2018-07-05T21:00:32.479Z,4.03
2018-07-05T21:03:12.845Z,7.33
2018-07-05T21:05:53.235Z,3.77
2018-07-05T21:08:33.604Z,5.10
2018-07-05T21:11:14.031Z,3.80
2018-07-05T21:13:54.536Z,4.60
2018-07-05T21:16:34.948Z,3.93
2018-07-05T21:19:15.377Z,4.10
2018-07-05T21:21:55.725Z,5.53
2018-07-05T21:24:36.191Z,5.73
2018-07-05T21:27:16.460Z,5.13
2018-07-05T21:29:56.858Z,7.03
2018-07-05T21:32:37.406Z,6.10
2018-07-05T21:35:17.880Z,8.70
2018-07-05T21:37:58.390Z,6.47
2018-07-05T21:40:38.932Z,10.10
2018-07-05T21:43:19.311Z,10.23
2018-07-05T21:45:59.819Z,11.33
2018-07-05T21:48:40.173Z,11.33
2018-07-05T21:51:20.656Z,11.80
2018-07-05T21:54:01.223Z,12.83
2018-07-05T21:56:41.949Z,12.97
2018-07-05T21:59:22.973Z,11.23
2018-07-05T22:02:03.939Z,12.27
2018-07-05T22:04:44.304Z,12.67
2018-07-05T22:07:24.772Z,12.07
2018-07-05T22:10:05.149Z,13.07
2018-07-05T22:12:45.504Z,12.10
2018-07-05T22:15:26.600Z,11.53
2018-07-05T22:18:12.550Z,11.30
2018-07-05T22:20:58.335Z,11.07
2018-07-05T22:23:44.016Z,11.67
2018-07-05T22:26:29.883Z,11.23
2018-07-05T22:29:15.784Z,11.67
2018-07-05T22:31:56.670Z,11.27
2018-07-05T22:34:37.233Z,13.07
2018-07-05T22:37:17.962Z,12.93
2018-07-05T22:39:58.299Z,14.87
2018-07-05T22:42:38.625Z,15.13
2018-07-05T22:45:18.981Z,13.27
2018-07-05T22:47:59.508Z,13.23
2018-07-05T22:50:40.048Z,14.30
2018-07-05T22:53:20.324Z,14.97
2018-07-05T22:56:00.694Z,13.77
2018-07-05T22:58:41.008Z,14.87
2018-07-05T23:01:21.481Z,15.73
2018-07-05T23:04:01.877Z,16.97
2018-07-05T23:06:42.215Z,15.63
2018-07-05T23:09:22.756Z,16.03
2018-07-05T23:12:03.180Z,16.33
2018-07-05T23:14:43.791Z,16.47
2018-07-05T23:17:24.335Z,17.77
2018-07-05T23:20:04.844Z,16.67
2018-07-05T23:22:45.182Z,18.17
2018-07-05T23:25:25.819Z,16.53
2018-07-05T23:28:06.395Z,18.97
2018-07-05T23:30:46.976Z,20.27
2018-07-05T23:33:27.400Z,18.47
2018-07-05T23:36:07.767Z,19.40
2018-07-05T23:38:48.124Z,19.97
2018-07-05T23:41:28.416Z,20.23
2018-07-05T23:44:08.884Z,19.60
2018-07-05T23:46:49.215Z,17.73
2018-07-05T23:49:29.731Z,18.90
2018-07-05T23:52:10.048Z,17.53
2018-07-05T23:54:50.308Z,17.10
2018-07-05T23:57:30.622Z,16.00
